This is the latest recevied weather packets stored in our database for station/object vk4vs. If no packets are shown the sender has not sent any weather packets the latest 1 day(s).
| Time | Temp. | Humidity | Pressure | Rain* | Wind** | Luminosity | Snow |
|---|---|---|---|---|---|---|---|
| 1778058053 | 13.89° C | 97% | 1017.2 hPa | 0.25 mm | 0.89 m/s, 118° | - | - |
| 1778056253 | 13.89° C | 97% | 1016.7 hPa | 5.08 mm | 0 m/s | - | - |
| 1778054453 | 13.89° C | 97% | 1016.6 hPa | 11.43 mm | 1.34 m/s, 133° | - | - |
| 1778052653 | 14.44° C | 96% | 1016.7 hPa | 6.6 mm | 1.34 m/s, 111° | - | - |
| 1778050853 | 14.44° C | 95% | 1016.1 hPa | 0 mm | 2.68 m/s, 131° | - | - |
| 1778049053 | 15.56° C | 92% | 1015.9 hPa | 0 mm | 2.24 m/s, 139° | - | - |
| 1778047253 | 15.56° C | 91% | 1016 hPa | 0 mm | 3.13 m/s, 144° | - | - |
| 1778045453 | 16.67° C | 88% | 1015.9 hPa | 0 mm | 2.68 m/s, 141° | - | - |
| 1778043653 | 16.67° C | 88% | 1016 hPa | 0 mm | 2.24 m/s, 155° | - | - |
| 1778041854 | 17.78° C | 82% | 1016 hPa | 0 mm | 1.79 m/s, 122° | - | - |
| 1778040053 | 18.33° C | 82% | 1016.2 hPa | 0 mm | 1.79 m/s, 128° | - | - |
| 1778038254 | 17.78° C | 85% | 1016.6 hPa | 0 mm | 2.24 m/s, 135° | - | - |
| 1778036453 | 16.67° C | 87% | 1016.7 hPa | 0 mm | 3.13 m/s, 137° | - | - |
| 1778034653 | 16.11° C | 91% | 1017.3 hPa | 0 mm | 2.68 m/s, 137° | - | - |
| 1778032853 | 15.56° C | 96% | 1017.7 hPa | 0 mm | 2.24 m/s, 132° | - | - |
| 1778031053 | 15° C | 98% | 1018.2 hPa | 0 mm | 2.68 m/s, 147° | - | - |
| 1778029254 | 15° C | 99% | 1018.4 hPa | 0 mm | 2.24 m/s, 134° | - | - |
| 1778027454 | 15° C | 99% | 1018.6 hPa | 0 mm | 1.79 m/s, 132° | - | - |
| 1778025653 | 14.44° C | 98% | 1018.6 hPa | 0 mm | 1.79 m/s, 115° | - | - |
| 1778023854 | 14.44° C | 98% | 1018.7 hPa | 0 mm | 2.68 m/s, 131° | - | - |
| 1778022054 | 14.44° C | 98% | 1018.7 hPa | 0 mm | 1.79 m/s, 120° | - | - |
| 1778020253 | 14.44° C | 98% | 1018.4 hPa | 0 mm | 2.24 m/s, 128° | - | - |
| 1778018453 | 14.44° C | 98% | 1018.3 hPa | 0 mm | 2.24 m/s, 133° | - | - |
| 1778016654 | 14.44° C | 98% | 1018.1 hPa | 0 mm | 2.24 m/s, 131° | - | - |
| 1778014853 | 14.44° C | 98% | 1017.8 hPa | 0 mm | 1.79 m/s, 119° | - | - |
* Rain latest hour (hover to see other rain measurements)
** Current wind speed in m/s (hover to see current wind gust speed)